createdAt,value
2022-08-09T00:08:33.187Z,4.60
2022-08-09T00:20:34.158Z,4.40
2022-08-09T00:32:33.746Z,4.90
2022-08-09T00:44:34.635Z,4.30
2022-08-09T00:56:34.669Z,4.60
2022-08-09T01:08:35.083Z,5.00
2022-08-09T01:20:35.557Z,5.20
2022-08-09T01:32:36.113Z,5.60
2022-08-09T01:44:36.476Z,6.00
2022-08-09T01:56:36.919Z,6.40
2022-08-09T02:08:57.119Z,6.60
2022-08-09T02:20:37.807Z,7.20
2022-08-09T02:32:38.290Z,6.80
2022-08-09T02:44:38.734Z,7.30
2022-08-09T02:56:39.167Z,7.20
2022-08-09T03:08:39.641Z,6.60
2022-08-09T03:20:40.078Z,6.70
2022-08-09T03:32:40.557Z,7.30
2022-08-09T03:44:40.982Z,7.00
2022-08-09T03:56:41.731Z,7.80
2022-08-09T04:08:41.904Z,8.10
2022-08-09T04:20:42.365Z,7.90
2022-08-09T04:32:42.894Z,8.10
2022-08-09T04:44:49.106Z,7.70
2022-08-09T04:56:43.743Z,7.60
2022-08-09T05:08:48.030Z,6.90
2022-08-09T05:20:44.744Z,7.00
2022-08-09T05:32:45.074Z,6.50
2022-08-09T05:44:45.536Z,6.20
2022-08-09T05:56:55.118Z,5.10
2022-08-09T06:08:52.579Z,4.40
2022-08-09T06:20:54.128Z,3.00
2022-08-09T06:33:00.900Z,2.70
2022-08-09T06:44:54.316Z,2.40
2022-08-09T06:56:48.278Z,2.20
2022-08-09T07:08:49.604Z,2.30
2022-08-09T07:20:49.200Z,2.20
2022-08-09T07:32:51.569Z,2.30
2022-08-09T07:44:52.347Z,2.20
2022-08-09T07:56:50.512Z,2.70
2022-08-09T08:09:04.023Z,2.40
2022-08-09T08:20:51.454Z,2.30
2022-08-09T08:32:53.918Z,2.40
2022-08-09T08:44:52.371Z,2.90
2022-08-09T08:56:52.828Z,2.80
2022-08-09T09:08:53.260Z,3.10
2022-08-09T09:20:53.686Z,3.10
2022-08-09T09:32:54.145Z,3.30
2022-08-09T09:44:54.653Z,2.80
2022-08-09T09:58:00.879Z,2.80
2022-08-09T10:08:57.575Z,2.20
2022-08-09T10:20:56.002Z,2.00
2022-08-09T10:32:56.537Z,2.30
2022-08-09T10:44:56.933Z,2.20
2022-08-09T10:56:57.360Z,1.90
2022-08-09T11:09:15.547Z,2.30
2022-08-09T11:20:58.307Z,2.30
2022-08-09T11:32:58.979Z,2.20
2022-08-09T11:44:59.189Z,2.30
2022-08-09T11:56:59.652Z,2.40
2022-08-09T12:09:01.140Z,2.20
2022-08-09T12:21:02.806Z,2.20
2022-08-09T12:33:01.037Z,2.50
2022-08-09T12:45:01.499Z,2.50
2022-08-09T12:57:01.952Z,2.30
2022-08-09T13:09:02.386Z,2.30
2022-08-09T13:22:34.171Z,2.40
2022-08-09T13:33:03.295Z,2.20
2022-08-09T13:45:03.787Z,2.30
2022-08-09T13:57:06.555Z,2.30
2022-08-09T14:09:05.041Z,1.90
2022-08-09T14:21:05.831Z,1.80
2022-08-09T14:33:11.195Z,1.70
2022-08-09T14:46:46.150Z,2.00
2022-08-09T14:57:06.526Z,1.70
2022-08-09T15:09:06.959Z,1.60
2022-08-09T15:22:00.682Z,1.60
2022-08-09T15:33:08.029Z,1.70
2022-08-09T15:45:08.342Z,1.60
2022-08-09T15:57:09.461Z,1.30
2022-08-09T16:09:09.285Z,1.40
2022-08-09T16:21:09.708Z,1.20
2022-08-09T16:33:10.186Z,1.40
2022-08-09T16:45:10.638Z,1.60
2022-08-09T16:57:11.116Z,1.20
2022-08-09T17:09:45.708Z,1.50
2022-08-09T17:21:11.960Z,1.20
2022-08-09T17:33:22.228Z,1.30
2022-08-09T17:45:15.890Z,1.20
2022-08-09T17:57:20.786Z,1.50
2022-08-09T18:09:13.774Z,5.10
2022-08-09T18:21:23.151Z,1.80
2022-08-09T18:33:15.144Z,1.60
2022-08-09T18:45:21.456Z,2.00
2022-08-09T18:57:15.625Z,2.00
2022-08-09T19:09:20.528Z,1.90
2022-08-09T19:21:16.583Z,1.90
2022-08-09T19:33:19.391Z,1.80
2022-08-09T19:45:17.751Z,1.80
2022-08-09T19:57:17.949Z,1.90
2022-08-09T20:09:20.599Z,2.20
2022-08-09T20:21:18.838Z,2.00
2022-08-09T20:33:19.290Z,2.30
2022-08-09T20:45:59.668Z,2.10
2022-08-09T20:57:20.212Z,2.30
2022-08-09T21:09:32.700Z,2.30
2022-08-09T21:21:21.113Z,2.60
2022-08-09T21:33:21.536Z,2.60
2022-08-09T21:45:22.051Z,2.80
2022-08-09T21:57:36.847Z,2.90
2022-08-09T22:09:23.744Z,3.00
2022-08-09T22:21:24.157Z,3.30
2022-08-09T22:33:23.846Z,3.20
2022-08-09T22:48:16.237Z,3.10
2022-08-09T22:57:31.538Z,3.70
2022-08-09T23:09:25.195Z,3.20
2022-08-09T23:21:29.921Z,3.30
2022-08-09T23:33:26.106Z,3.70
2022-08-09T23:45:37.506Z,3.60
2022-08-09T23:57:27.008Z,4.00
